Time;durP1;ratioP1;P1;durP2;ratioP2;P2;SDS_P1;SDS_P2;PMS_P1;PMS_P2;Temp;Humidity;BMP_temperature;BMP_pressure;BME280_temperature;BME280_humidity;BME280_pressure;Samples;Min_cycle;Max_cycle;Signal;HPM_P1;HPM_P2
2023/11/02 00:00:36;;;;;;;3.67;0.95;;;11.60;99.90;;;;;;5053313;28;20025;-71
2023/11/02 00:03:05;;;;;;;;;;;11.60;99.90;;;;;;5053931;28;20047;-71
2023/11/02 00:05:43;;;;;;;5.90;1.20;;;11.50;99.90;;;;;;5053567;28;19913;-75
2023/11/02 00:08:09;;;;;;;4.13;1.38;;;11.40;99.90;;;;;;5052613;28;20060;-74
2023/11/02 00:10:35;;;;;;;7.45;1.42;;;11.30;99.90;;;;;;5053403;28;20067;-73
2023/11/02 00:13:02;;;;;;;4.82;1.30;;;11.30;99.90;;;;;;5052567;28;20025;-72
2023/11/02 00:15:28;;;;;;;6.10;1.48;;;11.30;99.90;;;;;;5052716;28;20033;-70
2023/11/02 00:17:59;;;;;;;3.67;1.17;;;11.20;99.90;;;;;;5052967;28;20094;-70
2023/11/02 00:20:33;;;;;;;4.72;1.13;;;11.20;99.90;;;;;;5052565;28;20033;-73
2023/11/02 00:22:59;;;;;;;6.55;1.17;;;11.10;99.90;;;;;;5052490;28;20068;-71
2023/11/02 00:25:45;;;;;;;6.78;1.40;;;11.10;99.90;;;;;;5048051;28;20038;-73
2023/11/02 00:28:11;;;;;;;5.38;1.27;;;11.10;99.90;;;;;;5052418;28;20032;-75
2023/11/02 00:30:37;;;;;;;8.48;1.40;;;11.00;99.90;;;;;;5052547;28;20053;-74
2023/11/02 00:33:04;;;;;;;6.05;1.25;;;11.00;99.90;;;;;;5052015;28;20442;-70
2023/11/02 00:35:29;;;;;;;3.42;1.10;;;11.00;99.90;;;;;;5052177;28;20123;-74
2023/11/02 00:37:55;;;;;;;5.07;1.42;;;10.90;99.90;;;;;;5048731;28;20052;-71
2023/11/02 00:40:21;;;;;;;5.60;1.30;;;10.90;99.90;;;;;;5052764;28;20025;-73
2023/11/02 00:42:48;;;;;;;8.90;1.45;;;10.90;99.90;;;;;;5052433;28;20105;-72
2023/11/02 00:45:14;;;;;;;3.65;1.25;;;10.90;99.90;;;;;;5052050;28;20088;-72
2023/11/02 00:47:41;;;;;;;3.20;1.05;;;10.80;99.90;;;;;;5051212;28;20026;-73
2023/11/02 00:50:30;;;;;;;2.70;1.10;;;10.80;99.90;;;;;;5052258;28;20464;-73
2023/11/02 00:52:55;;;;;;;3.97;1.20;;;10.70;99.90;;;;;;5051692;28;20024;-72
2023/11/02 00:55:39;;;;;;;5.00;1.40;;;10.70;99.90;;;;;;5052202;28;20038;-72
2023/11/02 00:58:09;;;;;;;3.08;1.33;;;10.70;99.90;;;;;;5050246;28;20032;-72
2023/11/02 01:00:53;;;;;;;6.13;1.50;;;10.60;99.90;;;;;;5051881;28;20085;-73
2023/11/02 01:03:20;;;;;;;5.80;1.20;;;10.60;99.90;;;;;;5051755;28;20033;-72
2023/11/02 01:05:45;;;;;;;5.95;1.65;;;10.60;99.90;;;;;;5051196;28;20359;-70
2023/11/02 01:08:15;;;;;;;4.95;1.35;;;10.60;99.90;;;;;;5051587;28;20025;-71
2023/11/02 01:10:41;;;;;;;5.07;1.67;;;10.50;99.90;;;;;;5051545;28;20021;-72
2023/11/02 01:13:08;;;;;;;8.00;1.63;;;10.50;99.90;;;;;;5051548;28;20040;-73
2023/11/02 01:15:43;;;;;;;4.13;1.33;;;10.50;99.90;;;;;;5051800;28;20514;-73
2023/11/02 01:18:14;;;;;;;7.55;1.35;;;10.50;99.90;;;;;;5050444;28;20120;-73
2023/11/02 01:20:39;;;;;;;5.50;1.30;;;10.50;99.90;;;;;;5049435;28;20022;-72
2023/11/02 01:23:16;;;;;;;7.70;1.70;;;10.40;99.90;;;;;;5050418;28;20080;-73
2023/11/02 01:25:49;;;;;;;4.78;1.60;;;10.40;99.90;;;;;;5050918;28;20029;-72
2023/11/02 01:28:19;;;;;;;2.63;1.30;;;10.40;99.90;;;;;;5051163;28;20021;-72
2023/11/02 01:31:04;;;;;;;5.63;1.27;;;10.40;99.90;;;;;;5050990;28;20058;-73
2023/11/02 01:33:38;;;;;;;5.65;1.45;;;10.30;99.90;;;;;;5050704;28;20041;-74
2023/11/02 01:36:06;;;;;;;5.30;1.52;;;10.30;99.90;;;;;;5051855;28;20041;-72
2023/11/02 01:38:32;;;;;;;6.20;1.88;;;10.30;99.90;;;;;;5051192;28;20034;-73
2023/11/02 01:41:03;;;;;;;4.43;1.77;;;10.30;99.90;;;;;;5049528;28;20029;-73
2023/11/02 01:43:52;;;;;;;4.43;1.50;;;10.20;99.90;;;;;;5050054;28;20122;-70
2023/11/02 01:46:25;;;;;;;5.88;1.65;;;10.20;99.90;;;;;;5048855;28;20047;-72
2023/11/02 01:49:20;;;;;;;5.38;1.52;;;10.20;99.90;;;;;;5048273;28;20421;-73
2023/11/02 01:52:08;;;;;;;5.32;1.70;;;10.20;99.90;;;;;;5047491;28;20045;-72
2023/11/02 01:54:52;;;;;;;5.40;1.70;;;10.10;99.90;;;;;;5049822;28;20041;-73
2023/11/02 01:57:41;;;;;;;3.10;1.45;;;10.10;99.90;;;;;;5050907;28;20025;-73
2023/11/02 02:00:12;;;;;;;4.53;1.60;;;10.00;99.90;;;;;;5049533;28;20037;-75
2023/11/02 02:02:56;;;;;;;3.83;1.60;;;10.00;99.90;;;;;;5050512;28;20017;-73
2023/11/02 02:05:48;;;;;;;2.33;1.40;;;10.00;99.90;;;;;;5050939;28;20027;-74
2023/11/02 02:08:35;;;;;;;4.00;1.63;;;10.00;99.90;;;;;;5050338;28;20037;-74
2023/11/02 02:11:15;;;;;;;2.65;1.52;;;10.00;99.90;;;;;;5050162;28;20026;-74
2023/11/02 02:14:02;;;;;;;6.65;1.23;;;9.90;99.90;;;;;;5050024;28;20043;-73
2023/11/02 02:16:34;;;;;;;3.92;1.60;;;9.90;99.90;;;;;;5048623;28;20028;-73
2023/11/02 02:19:14;;;;;;;6.32;1.63;;;9.90;99.90;;;;;;5048924;28;20083;-72
2023/11/02 02:22:02;;;;;;;5.57;1.50;;;9.80;99.90;;;;;;5049675;28;20025;-73
2023/11/02 02:24:56;;;;;;;5.05;1.65;;;9.80;99.90;;;;;;5049878;28;20455;-71
2023/11/02 02:27:47;;;;;;;3.65;1.50;;;9.80;99.90;;;;;;5047815;28;20021;-72
2023/11/02 02:30:39;;;;;;;4.78;1.27;;;9.80;99.90;;;;;;5049337;28;20030;-72
2023/11/02 02:33:27;;;;;;;4.65;1.48;;;9.80;99.90;;;;;;5048120;28;20325;-73
2023/11/02 02:36:08;;;;;;;5.00;1.30;;;9.70;99.90;;;;;;5049372;28;20056;-73
2023/11/02 02:38:43;;;;;;;5.88;1.40;;;9.70;99.90;;;;;;5049182;28;20121;-72
2023/11/02 02:41:15;;;;;;;4.45;1.35;;;9.70;99.90;;;;;;5050373;28;20037;-72
2023/11/02 02:43:44;;;;;;;7.20;1.58;;;9.70;99.90;;;;;;5049981;28;20032;-73
2023/11/02 02:46:11;;;;;;;3.38;1.35;;;9.60;99.90;;;;;;5050462;28;20112;-74
2023/11/02 02:48:39;;;;;;;6.15;1.33;;;9.60;99.90;;;;;;5049091;28;20385;-72
2023/11/02 02:51:08;;;;;;;5.38;1.67;;;9.60;99.90;;;;;;5049094;28;20396;-73
2023/11/02 02:53:40;;;;;;;6.68;1.20;;;9.50;99.90;;;;;;5049280;28;20093;-73
2023/11/02 02:56:09;;;;;;;4.40;1.65;;;9.60;99.90;;;;;;5047801;28;20366;-72
2023/11/02 02:58:44;;;;;;;3.53;1.52;;;9.60;99.90;;;;;;5048233;28;20052;-73
2023/11/02 03:01:12;;;;;;;6.82;1.45;;;9.60;99.90;;;;;;5048370;28;20025;-73
2023/11/02 03:03:40;;;;;;;6.70;1.70;;;9.60;99.90;;;;;;5049389;28;20494;-74
2023/11/02 03:06:07;;;;;;;2.00;0.90;;;9.60;99.90;;;;;;5049859;28;20083;-73
2023/11/02 03:08:40;;;;;;;6.93;1.42;;;9.50;99.90;;;;;;5049856;28;20033;-73
2023/11/02 03:11:11;;;;;;;6.50;1.23;;;9.50;99.90;;;;;;5047821;28;20030;-74
2023/11/02 03:13:39;;;;;;;3.78;1.20;;;9.50;99.90;;;;;;5048754;28;20033;-74
2023/11/02 03:16:11;;;;;;;5.35;0.98;;;9.40;99.90;;;;;;5049538;28;20060;-72
2023/11/02 03:18:39;;;;;;;4.75;1.17;;;9.40;99.90;;;;;;5048646;28;20585;-73
2023/11/02 03:21:11;;;;;;;6.13;1.23;;;9.40;99.90;;;;;;5049630;28;20033;-74
2023/11/02 03:23:40;;;;;;;4.20;1.25;;;9.40;99.90;;;;;;5049880;28;20045;-72
2023/11/02 03:26:21;;;;;;;6.70;1.40;;;9.40;99.90;;;;;;5050408;28;20080;-72
2023/11/02 03:29:35;;;;;;;4.28;1.38;;;9.30;99.90;;;;;;5049295;28;20036;-74
2023/11/02 03:32:18;;;;;;;3.95;1.13;;;9.30;99.90;;;;;;5042241;28;20064;-71
2023/11/02 03:35:01;;;;;;;5.78;1.80;;;9.30;99.90;;;;;;5048937;28;20444;-74
2023/11/02 03:37:39;;;;;;;6.15;1.50;;;9.30;99.90;;;;;;5048615;28;20504;-71
2023/11/02 03:40:35;;;;;;;8.75;1.45;;;9.20;99.90;;;;;;5049783;28;20481;-75
2023/11/02 03:43:18;;;;;;;8.63;1.55;;;9.20;99.90;;;;;;5050160;28;20592;-71
2023/11/02 03:46:08;;;;;;;6.40;1.60;;;9.20;99.90;;;;;;5049998;28;20029;-72
2023/11/02 03:48:42;;;;;;;4.38;1.45;;;9.20;99.90;;;;;;5049481;28;20036;-72
2023/11/02 03:51:29;;;;;;;10.48;1.60;;;9.20;99.90;;;;;;5050159;28;20029;-72
2023/11/02 03:54:11;;;;;;;3.78;1.50;;;9.20;99.90;;;;;;5047899;28;20362;-71
2023/11/02 03:57:01;;;;;;;6.25;1.58;;;9.20;99.90;;;;;;5049922;28;20029;-73
2023/11/02 03:59:55;;;;;;;4.05;1.50;;;9.20;99.90;;;;;;5050058;28;20432;-72
2023/11/02 04:02:31;;;;;;;5.85;1.40;;;9.20;99.90;;;;;;5049592;28;20021;-73
2023/11/02 04:05:14;;;;;;;6.15;2.22;;;9.10;99.90;;;;;;5049889;28;20064;-71
2023/11/02 04:07:59;;;;;;;5.10;1.42;;;9.10;99.90;;;;;;5049664;28;20013;-73
2023/11/02 04:10:31;;;;;;;6.25;1.67;;;9.10;99.90;;;;;;5052906;28;20837;-72
2023/11/02 04:13:22;;;;;;;4.55;1.40;;;9.10;99.90;;;;;;5052800;28;20029;-71
2023/11/02 04:15:51;;;;;;;5.15;1.70;;;9.10;99.90;;;;;;5053132;28;20145;-69
2023/11/02 04:18:23;;;;;;;6.78;1.52;;;9.10;99.90;;;;;;5052961;28;20064;-72
2023/11/02 04:20:52;;;;;;;4.45;1.50;;;9.10;99.90;;;;;;5049944;28;20025;-71
2023/11/02 04:23:22;;;;;;;4.47;1.73;;;9.10;99.90;;;;;;5053251;28;20050;-70
2023/11/02 04:25:50;;;;;;;3.22;1.33;;;9.00;99.90;;;;;;5052689;28;20037;-71
2023/11/02 04:28:16;;;;;;;3.40;1.45;;;9.00;99.90;;;;;;5052326;28;20083;-70
2023/11/02 04:30:43;;;;;;;3.70;1.50;;;9.00;99.90;;;;;;5053448;28;20084;-72
2023/11/02 04:33:09;;;;;;;5.57;1.58;;;9.10;99.90;;;;;;5053389;28;20036;-72
2023/11/02 04:35:36;;;;;;;5.50;1.40;;;9.10;99.90;;;;;;5052491;28;20029;-70
2023/11/02 04:38:04;;;;;;;6.78;1.70;;;9.10;99.90;;;;;;5050419;28;20045;-72
2023/11/02 04:40:30;;;;;;;6.78;1.65;;;9.10;99.90;;;;;;5051213;28;20024;-72
2023/11/02 04:42:56;;;;;;;7.57;1.30;;;9.10;99.90;;;;;;5053211;28;20044;-72
2023/11/02 04:45:22;;;;;;;7.88;1.83;;;9.10;99.90;;;;;;5053595;28;20032;-71
2023/11/02 04:47:47;;;;;;;8.40;1.70;;;9.10;99.90;;;;;;5052651;28;20034;-73
2023/11/02 04:50:13;;;;;;;4.85;1.70;;;9.00;99.90;;;;;;5053535;28;20073;-71
2023/11/02 04:52:39;;;;;;;8.10;1.88;;;9.10;99.90;;;;;;5052925;28;20025;-71
2023/11/02 04:55:05;;;;;;;4.80;1.60;;;9.10;99.90;;;;;;5051295;28;20041;-73
2023/11/02 04:57:33;;;;;;;4.03;1.67;;;9.10;99.90;;;;;;5051925;28;20040;-71
2023/11/02 05:00:03;;;;;;;7.55;1.30;;;9.10;99.90;;;;;;5051435;28;20091;-74
2023/11/02 05:02:31;;;;;;;7.00;1.67;;;9.10;99.90;;;;;;5051870;28;20021;-70
2023/11/02 05:04:57;;;;;;;7.45;1.98;;;9.10;99.90;;;;;;5052308;28;20013;-71
2023/11/02 05:07:23;;;;;;;3.75;1.70;;;9.20;99.90;;;;;;5052152;28;20080;-73
2023/11/02 05:09:48;;;;;;;6.60;1.60;;;9.30;99.90;;;;;;5052395;28;20032;-70
2023/11/02 05:12:14;;;;;;;7.45;1.83;;;9.30;99.90;;;;;;5052282;28;20144;-69
2023/11/02 05:14:39;;;;;;;4.40;1.40;;;9.20;99.90;;;;;;5052018;28;20033;-71
2023/11/02 05:17:05;;;;;;;7.25;2.03;;;9.20;99.90;;;;;;5051864;28;20093;-72
2023/11/02 05:19:31;;;;;;;10.27;2.38;;;9.30;99.90;;;;;;5052323;28;20033;-71
2023/11/02 05:21:57;;;;;;;7.05;1.90;;;9.30;99.90;;;;;;5052384;28;20048;-72
2023/11/02 05:24:22;;;;;;;7.32;1.40;;;9.30;99.90;;;;;;5051376;28;20021;-70
2023/11/02 05:26:51;;;;;;;4.65;1.65;;;9.20;99.90;;;;;;5051287;28;20027;-72
2023/11/02 05:29:17;;;;;;;8.90;1.92;;;9.40;99.90;;;;;;5051196;28;20028;-71
2023/11/02 05:31:42;;;;;;;6.82;2.08;;;9.40;99.90;;;;;;5051576;28;20025;-74
2023/11/02 05:34:08;;;;;;;9.50;2.00;;;9.40;99.90;;;;;;5051528;28;20096;-71
2023/11/02 05:36:34;;;;;;;3.97;1.48;;;9.50;99.90;;;;;;5051246;28;20032;-70
2023/11/02 05:38:59;;;;;;;3.75;1.83;;;9.50;99.90;;;;;;5051126;28;20021;-72
2023/11/02 05:41:25;;;;;;;3.03;1.40;;;9.60;99.90;;;;;;5051508;28;20037;-69
2023/11/02 05:43:51;;;;;;;6.32;1.70;;;9.60;99.90;;;;;;5051380;28;20096;-73
2023/11/02 05:46:16;;;;;;;4.38;1.60;;;9.70;99.90;;;;;;5051275;28;20025;-71
2023/11/02 05:48:42;;;;;;;6.93;1.70;;;9.80;99.90;;;;;;5052050;28;20029;-71
2023/11/02 05:51:08;;;;;;;4.15;1.52;;;9.70;99.90;;;;;;5052410;28;20398;-73
2023/11/02 05:53:33;;;;;;;3.90;1.67;;;9.70;99.90;;;;;;5051343;28;20041;-73
2023/11/02 05:55:59;;;;;;;6.72;1.60;;;9.80;99.90;;;;;;5051270;28;20070;-70
2023/11/02 05:58:25;;;;;;;7.72;1.98;;;9.70;99.90;;;;;;5050784;28;20021;-69
2023/11/02 06:00:51;;;;;;;3.58;1.40;;;9.80;99.90;;;;;;5052129;28;20025;-72
2023/11/02 06:03:16;;;;;;;7.97;1.67;;;9.80;99.90;;;;;;5048528;28;20026;-73
2023/11/02 06:05:42;;;;;;;3.88;1.55;;;9.80;99.90;;;;;;5049590;28;20040;-72
2023/11/02 06:08:08;;;;;;;5.78;1.92;;;9.80;99.90;;;;;;5049034;28;20062;-71
2023/11/02 06:10:34;;;;;;;4.53;1.67;;;9.80;99.90;;;;;;5049247;28;20037;-73
2023/11/02 06:12:59;;;;;;;6.97;1.77;;;9.90;99.90;;;;;;5050556;28;20021;-72
2023/11/02 06:15:25;;;;;;;4.57;1.60;;;9.80;99.90;;;;;;5050702;28;20045;-72
2023/11/02 06:17:50;;;;;;;3.13;1.52;;;9.80;99.90;;;;;;5048081;28;20087;-71
2023/11/02 06:20:16;;;;;;;7.90;1.63;;;9.80;99.90;;;;;;5048746;28;20021;-75
2023/11/02 06:22:42;;;;;;;6.50;1.60;;;9.80;99.90;;;;;;5050954;28;20068;-72
2023/11/02 06:25:11;;;;;;;5.57;1.55;;;9.80;99.90;;;;;;5051402;28;20029;-74
2023/11/02 06:27:37;;;;;;;8.38;2.75;;;9.80;99.90;;;;;;5052059;28;20032;-73
2023/11/02 06:30:03;;;;;;;6.97;1.80;;;9.80;99.90;;;;;;5051481;28;20013;-73
2023/11/02 06:32:29;;;;;;;3.58;1.42;;;9.80;99.90;;;;;;5050054;28;20029;-74
2023/11/02 06:34:58;;;;;;;3.83;1.33;;;9.80;99.90;;;;;;5049851;28;20063;-73
2023/11/02 06:37:23;;;;;;;4.28;1.35;;;9.80;99.90;;;;;;5046832;28;20478;-72
2023/11/02 06:39:49;;;;;;;5.05;1.17;;;9.90;99.90;;;;;;5046239;28;20024;-75
2023/11/02 06:42:18;;;;;;;2.20;1.08;;;9.90;99.90;;;;;;5049034;28;20129;-74
2023/11/02 06:44:44;;;;;;;2.75;1.13;;;9.90;99.90;;;;;;5048001;28;20041;-74
2023/11/02 06:47:11;;;;;;;6.00;1.52;;;9.90;99.90;;;;;;5050991;28;20040;-75
2023/11/02 06:49:37;;;;;;;2.83;1.35;;;9.90;99.90;;;;;;5051005;28;20085;-74
2023/11/02 06:52:03;;;;;;;3.85;1.13;;;10.00;99.90;;;;;;5050889;28;20028;-75
2023/11/02 06:54:29;;;;;;;3.25;1.33;;;10.00;99.90;;;;;;5049767;28;20041;-76
2023/11/02 06:56:55;;;;;;;4.85;1.27;;;10.00;99.90;;;;;;5050806;28;20022;-72
2023/11/02 06:59:20;;;;;;;5.68;1.33;;;10.00;99.90;;;;;;5050459;28;20017;-71
2023/11/02 07:01:50;;;;;;;4.97;1.42;;;10.00;99.90;;;;;;5045823;28;20048;-75
2023/11/02 07:04:16;;;;;;;11.38;1.73;;;10.10;99.90;;;;;;5046442;28;20044;-75
2023/11/02 07:06:42;;;;;;;4.32;1.20;;;10.10;99.90;;;;;;5051785;28;20022;-73
2023/11/02 07:09:08;;;;;;;4.20;1.25;;;10.10;99.90;;;;;;5049335;28;20056;-74
2023/11/02 07:11:33;;;;;;;8.73;1.50;;;10.10;99.90;;;;;;5048739;28;20166;-74
2023/11/02 07:13:59;;;;;;;7.15;1.48;;;10.20;99.90;;;;;;5047542;28;20358;-74
2023/11/02 07:16:25;;;;;;;3.63;1.25;;;10.20;99.90;;;;;;5048443;28;20021;-75
2023/11/02 07:18:51;;;;;;;6.35;1.00;;;10.20;99.90;;;;;;5049660;28;20028;-77
2023/11/02 07:21:17;;;;;;;8.80;1.15;;;10.30;99.90;;;;;;5047755;28;20029;-76
2023/11/02 07:23:44;;;;;;;3.83;1.05;;;10.30;99.90;;;;;;5047992;28;20052;-75
2023/11/02 07:26:10;;;;;;;7.18;1.33;;;10.30;99.90;;;;;;5050556;28;20033;-74
2023/11/02 07:28:36;;;;;;;4.97;1.45;;;10.30;99.90;;;;;;5049690;28;20021;-75
2023/11/02 07:31:07;;;;;;;3.08;1.08;;;10.40;99.90;;;;;;5049939;28;20587;-74
2023/11/02 07:33:39;;;;;;;6.20;1.02;;;10.40;99.90;;;;;;5050088;28;20473;-72
2023/11/02 07:36:12;;;;;;;1.90;0.88;;;10.40;99.90;;;;;;5049382;28;20025;-74
2023/11/02 07:38:38;;;;;;;7.32;1.33;;;10.40;99.90;;;;;;5048245;28;20021;-74
2023/11/02 07:41:08;;;;;;;8.73;1.10;;;10.40;99.90;;;;;;5050565;28;20017;-74
2023/11/02 07:43:37;;;;;;;6.38;1.33;;;10.40;99.90;;;;;;5050302;28;20018;-74
2023/11/02 07:46:02;;;;;;;1.98;1.10;;;10.40;99.90;;;;;;5052348;28;20032;-73
2023/11/02 07:48:28;;;;;;;5.35;1.05;;;10.40;99.90;;;;;;5054115;28;20895;-73
2023/11/02 07:50:54;;;;;;;6.68;0.80;;;10.40;99.90;;;;;;5053106;28;20070;-74
2023/11/02 07:53:19;;;;;;;4.07;0.90;;;10.50;99.90;;;;;;5054734;28;20033;-74
2023/11/02 07:55:46;;;;;;;3.97;1.10;;;10.50;99.90;;;;;;5050836;28;20033;-75
2023/11/02 07:58:13;;;;;;;6.15;1.30;;;10.50;99.90;;;;;;5053507;28;20436;-75
2023/11/02 08:00:39;;;;;;;4.40;1.00;;;10.50;99.90;;;;;;5050712;28;20117;-76
2023/11/02 08:03:05;;;;;;;2.65;0.80;;;10.60;99.90;;;;;;5052495;28;20505;-72
2023/11/02 08:05:31;;;;;;;4.10;0.80;;;10.60;99.90;;;;;;5052473;28;20038;-74
2023/11/02 08:07:56;;;;;;;4.65;1.15;;;10.60;99.90;;;;;;5052678;28;20456;-73
2023/11/02 08:10:22;;;;;;;6.45;1.23;;;10.70;99.90;;;;;;5046193;28;20060;-74
2023/11/02 08:12:47;;;;;;;6.30;1.17;;;10.70;99.90;;;;;;5047184;28;20025;-74
2023/11/02 08:15:14;;;;;;;3.17;0.80;;;10.70;99.90;;;;;;5052156;28;20401;-73
2023/11/02 08:17:42;;;;;;;3.53;0.98;;;10.70;99.90;;;;;;5055041;28;20025;-74
2023/11/02 08:20:10;;;;;;;4.28;0.90;;;10.70;99.90;;;;;;5053452;28;20029;-73
2023/11/02 08:22:36;;;;;;;3.15;0.93;;;10.70;99.90;;;;;;5049825;28;21082;-74
2023/11/02 08:25:03;;;;;;;5.35;1.20;;;10.70;99.90;;;;;;5052056;28;20033;-71
2023/11/02 08:27:29;;;;;;;3.83;1.10;;;10.70;99.90;;;;;;5053007;28;20494;-73
2023/11/02 08:29:55;;;;;;;8.45;1.52;;;10.70;99.90;;;;;;5051642;28;20033;-72
2023/11/02 08:32:21;;;;;;;3.30;1.30;;;10.70;99.90;;;;;;5052561;28;20052;-73
2023/11/02 08:34:47;;;;;;;6.15;1.13;;;10.70;99.90;;;;;;5053635;28;20029;-72
2023/11/02 08:37:12;;;;;;;3.05;0.75;;;10.70;99.90;;;;;;5049762;28;20113;-72
2023/11/02 08:39:42;;;;;;;6.00;0.90;;;10.70;99.90;;;;;;5052762;28;20025;-74
2023/11/02 08:42:08;;;;;;;3.83;1.00;;;10.70;99.90;;;;;;5049762;28;20037;-71
2023/11/02 08:44:34;;;;;;;9.27;1.00;;;10.70;99.90;;;;;;5051566;28;20018;-73
2023/11/02 08:46:59;;;;;;;4.38;1.10;;;10.70;99.90;;;;;;5050577;28;20036;-72
2023/11/02 08:49:26;;;;;;;3.42;1.10;;;10.70;99.90;;;;;;5052418;28;20085;-73
2023/11/02 08:51:52;;;;;;;3.28;1.30;;;10.70;99.90;;;;;;5048631;28;20062;-72
2023/11/02 08:54:18;;;;;;;8.07;1.10;;;10.70;99.90;;;;;;5050396;28;20041;-72
2023/11/02 08:56:43;;;;;;;4.82;1.27;;;10.70;99.90;;;;;;5050562;28;20029;-74
2023/11/02 08:59:11;;;;;;;2.00;1.00;;;10.70;99.90;;;;;;5053288;28;20018;-73
2023/11/02 09:01:47;;;;;;;2.45;0.77;;;10.70;99.90;;;;;;5052545;28;20064;-73
2023/11/02 09:04:33;;;;;;;;;;;;;;;;;;;;;
2023/11/02 09:06:59;;;;;;;1.77;0.75;;;10.70;99.90;;;;;;5052785;28;20128;-72
2023/11/02 09:09:25;;;;;;;7.05;1.33;;;10.70;99.90;;;;;;5050935;28;20056;-72
2023/11/02 09:11:52;;;;;;;5.78;1.05;;;10.70;99.90;;;;;;5050241;28;20041;-74
2023/11/02 09:14:18;;;;;;;4.75;0.90;;;10.70;99.90;;;;;;5050471;28;20041;-71
2023/11/02 09:16:44;;;;;;;3.33;1.00;;;10.80;99.90;;;;;;5051610;28;20036;-70
2023/11/02 09:19:11;;;;;;;2.83;0.93;;;10.80;99.90;;;;;;5052662;28;20084;-72
2023/11/02 09:21:38;;;;;;;2.63;0.77;;;10.80;99.90;;;;;;5050212;28;20034;-72
2023/11/02 09:24:04;;;;;;;9.05;1.42;;;10.80;99.90;;;;;;5051470;28;20036;-72
2023/11/02 09:26:37;;;;;;;2.40;1.10;;;10.80;99.90;;;;;;5048679;28;20025;-74
2023/11/02 09:29:03;;;;;;;3.97;0.80;;;10.80;99.90;;;;;;5048359;28;20033;-69
2023/11/02 09:31:29;;;;;;;10.18;1.23;;;10.90;99.90;;;;;;5051231;28;20044;-71
2023/11/02 09:34:03;;;;;;;1.77;0.90;;;10.90;99.90;;;;;;5049877;28;20111;-72
2023/11/02 09:36:38;;;;;;;3.90;1.40;;;10.90;99.90;;;;;;5049860;28;20037;-73
2023/11/02 09:39:07;;;;;;;3.25;0.80;;;10.90;99.90;;;;;;5051227;28;20009;-70
2023/11/02 09:41:35;;;;;;;4.20;1.10;;;10.90;99.90;;;;;;5051397;28;20103;-72
2023/11/02 09:44:01;;;;;;;3.67;1.17;;;10.90;99.90;;;;;;5052635;28;20079;-70
2023/11/02 09:46:26;;;;;;;2.75;0.80;;;10.90;99.90;;;;;;5052130;28;20028;-71
2023/11/02 09:48:52;;;;;;;3.45;0.95;;;10.90;99.90;;;;;;5052330;28;20470;-72
2023/11/02 09:51:18;;;;;;;4.53;1.10;;;10.90;99.90;;;;;;5051587;28;20030;-72
2023/11/02 09:53:44;;;;;;;2.53;0.90;;;10.90;99.90;;;;;;5051538;28;20041;-72
2023/11/02 09:56:14;;;;;;;1.15;0.70;;;11.00;99.90;;;;;;5052026;28;20033;-73
2023/11/02 09:58:41;;;;;;;3.95;0.85;;;11.00;99.90;;;;;;5051876;28;20028;-73
2023/11/02 10:01:08;;;;;;;7.25;1.75;;;11.10;99.90;;;;;;5047481;28;20030;-72
2023/11/02 10:03:35;;;;;;;3.70;1.08;;;11.10;99.90;;;;;;5049983;28;20481;-74
2023/11/02 10:06:03;;;;;;;8.45;0.80;;;11.20;99.90;;;;;;5045956;28;20030;-72
2023/11/02 10:08:28;;;;;;;1.60;0.80;;;11.30;99.90;;;;;;5043562;28;20036;-73
2023/11/02 10:11:19;;;;;;;12.88;1.00;;;11.30;99.90;;;;;;5043165;28;20033;-73
2023/11/02 10:13:49;;;;;;;2.97;0.90;;;11.40;99.90;;;;;;5051607;28;20160;-71
2023/11/02 10:16:23;;;;;;;2.22;0.63;;;11.40;99.90;;;;;;5049186;28;20098;-73
2023/11/02 10:18:49;;;;;;;1.67;0.80;;;11.50;99.90;;;;;;5049944;28;20036;-75
2023/11/02 10:21:19;;;;;;;3.70;1.05;;;11.50;99.90;;;;;;5049820;28;20030;-74
2023/11/02 10:23:50;;;;;;;4.63;0.85;;;11.50;99.90;;;;;;5047732;28;20062;-76
2023/11/02 10:26:19;;;;;;;1.50;0.73;;;11.50;99.90;;;;;;5049375;28;20021;-74
2023/11/02 10:28:45;;;;;;;2.80;0.77;;;11.60;99.90;;;;;;5049429;28;20025;-75
2023/11/02 10:31:16;;;;;;;1.42;0.60;;;11.60;99.90;;;;;;5048899;28;20029;-75
2023/11/02 10:33:43;;;;;;;1.73;0.68;;;11.70;99.90;;;;;;5050821;28;20056;-74
2023/11/02 10:36:09;;;;;;;2.90;0.80;;;11.80;99.90;;;;;;5047666;28;20020;-72
2023/11/02 10:38:35;;;;;;;2.70;0.75;;;11.90;99.90;;;;;;5047488;28;20078;-74
2023/11/02 10:41:00;;;;;;;4.40;0.90;;;12.00;99.90;;;;;;5050242;28;20033;-72
2023/11/02 10:43:28;;;;;;;1.95;0.70;;;12.10;99.90;;;;;;5050068;28;20030;-73
2023/11/02 10:45:54;;;;;;;2.15;0.60;;;12.10;99.90;;;;;;5049557;28;20037;-75
2023/11/02 10:48:21;;;;;;;1.17;0.57;;;12.20;99.90;;;;;;5047777;28;20030;-73
2023/11/02 10:50:49;;;;;;;2.88;0.50;;;12.20;99.90;;;;;;5040726;28;20042;-72
2023/11/02 10:53:45;;;;;;;3.78;0.80;;;12.20;99.90;;;;;;5049286;28;20030;-76
2023/11/02 10:56:20;;;;;;;1.38;0.63;;;12.30;99.90;;;;;;5050193;28;20048;-73
2023/11/02 10:58:53;;;;;;;4.20;0.80;;;12.40;99.90;;;;;;5050470;28;20056;-74
2023/11/02 11:01:19;;;;;;;1.40;0.50;;;12.40;99.90;;;;;;5050833;28;20014;-69
2023/11/02 11:03:50;;;;;;;2.58;0.60;;;12.40;99.90;;;;;;5050620;28;20060;-74
2023/11/02 11:06:17;;;;;;;7.95;0.70;;;12.40;99.90;;;;;;5050349;28;20032;-74
2023/11/02 11:08:46;;;;;;;2.35;0.60;;;12.50;99.90;;;;;;5050065;28;20039;-74
2023/11/02 11:11:13;;;;;;;1.02;0.50;;;12.60;99.90;;;;;;5050658;28;20037;-73
2023/11/02 11:13:51;;;;;;;2.88;0.57;;;12.60;99.90;;;;;;5047908;28;20025;-74
2023/11/02 11:16:25;;;;;;;4.82;0.63;;;12.70;99.90;;;;;;5046455;28;20048;-72
2023/11/02 11:18:52;;;;;;;0.80;0.50;;;12.70;99.90;;;;;;5051804;28;20033;-71
2023/11/02 11:21:20;;;;;;;1.40;0.50;;;12.80;99.90;;;;;;5049771;28;20029;-71
2023/11/02 11:23:46;;;;;;;1.10;0.40;;;12.90;99.90;;;;;;5052870;28;20063;-74
2023/11/02 11:26:12;;;;;;;0.75;0.50;;;12.90;99.90;;;;;;5053750;28;20049;-73
2023/11/02 11:28:38;;;;;;;1.17;0.60;;;12.90;99.90;;;;;;5053929;28;20017;-72
2023/11/02 11:31:05;;;;;;;3.05;0.45;;;13.00;99.90;;;;;;5053896;28;20013;-73
2023/11/02 11:33:49;;;;;;;1.48;0.40;;;13.00;99.90;;;;;;5053929;28;20095;-73
2023/11/02 11:36:22;;;;;;;8.48;0.50;;;13.00;99.90;;;;;;5054582;28;20037;-71
2023/11/02 11:38:51;;;;;;;2.38;0.50;;;13.10;99.90;;;;;;5052759;28;20116;-70
2023/11/02 11:41:45;;;;;;;3.17;0.50;;;13.10;99.90;;;;;;5053176;28;20025;-70
2023/11/02 11:44:21;;;;;;;1.05;0.38;;;13.10;99.90;;;;;;5053270;28;20017;-73
2023/11/02 11:46:51;;;;;;;1.67;0.25;;;13.10;99.90;;;;;;5053008;28;20029;-71
2023/11/02 11:49:33;;;;;;;3.17;0.30;;;13.20;99.90;;;;;;5054214;28;20035;-72
2023/11/02 11:52:00;;;;;;;0.68;0.40;;;13.20;99.90;;;;;;5051483;28;20033;-74
2023/11/02 11:54:27;;;;;;;1.77;0.30;;;13.20;99.90;;;;;;5053831;28;20029;-70
2023/11/02 11:56:53;;;;;;;0.35;0.30;;;13.30;99.90;;;;;;5048480;28;20830;-75
2023/11/02 11:59:19;;;;;;;2.80;0.50;;;13.30;99.90;;;;;;5053279;28;20385;-71
2023/11/02 12:01:45;;;;;;;3.30;0.40;;;13.30;99.90;;;;;;5053390;28;20059;-73
2023/11/02 12:04:45;;;;;;;4.28;0.50;;;13.30;99.90;;;;;;5054379;28;20021;-73
2023/11/02 12:07:20;;;;;;;0.68;0.35;;;13.40;99.90;;;;;;5051888;28;20025;-71
2023/11/02 12:09:45;;;;;;;0.75;0.40;;;13.60;99.90;;;;;;5051174;28;20096;-70
2023/11/02 12:12:13;;;;;;;2.08;0.40;;;13.60;99.90;;;;;;5044845;28;20131;-72
2023/11/02 12:14:38;;;;;;;3.65;0.73;;;13.70;99.90;;;;;;5052903;28;20060;-72
2023/11/02 12:17:04;;;;;;;2.90;0.40;;;13.70;99.90;;;;;;5052297;28;20021;-73
2023/11/02 12:19:41;;;;;;;3.10;0.50;;;13.80;99.90;;;;;;5052379;28;20021;-74
2023/11/02 12:22:11;;;;;;;0.93;0.47;;;13.80;99.90;;;;;;5051163;28;20414;-72
2023/11/02 12:24:40;;;;;;;4.03;0.40;;;13.80;99.90;;;;;;5052351;28;20029;-73
2023/11/02 12:27:15;;;;;;;1.02;0.40;;;13.80;99.90;;;;;;5051458;28;20044;-72
2023/11/02 12:29:59;;;;;;;1.02;0.30;;;13.70;99.90;;;;;;5045776;28;20095;-72
2023/11/02 12:32:25;;;;;;;1.50;0.38;;;13.60;99.90;;;;;;5050652;28;20102;-73
2023/11/02 12:34:54;;;;;;;2.03;0.60;;;13.60;99.90;;;;;;5050715;28;20151;-71
2023/11/02 12:37:21;;;;;;;1.63;0.55;;;13.50;99.90;;;;;;5049932;28;20047;-72
2023/11/02 12:39:57;;;;;;;2.13;0.57;;;13.50;99.90;;;;;;5047543;28;20021;-71
2023/11/02 12:42:23;;;;;;;2.72;0.60;;;13.40;99.90;;;;;;5054083;28;20025;-73
2023/11/02 12:44:51;;;;;;;3.00;0.60;;;13.40;99.90;;;;;;5052318;28;20075;-72
2023/11/02 12:47:16;;;;;;;1.05;0.30;;;13.40;99.90;;;;;;5050749;28;20032;-70
2023/11/02 12:49:42;;;;;;;1.17;0.63;;;13.30;99.90;;;;;;5052970;28;20021;-71
2023/11/02 12:52:09;;;;;;;0.77;0.47;;;13.30;99.90;;;;;;5053021;28;20040;-72
2023/11/02 12:54:37;;;;;;;1.45;0.40;;;13.30;99.90;;;;;;5053342;28;20032;-72
2023/11/02 12:57:05;;;;;;;0.57;0.35;;;13.30;99.90;;;;;;5053895;28;20466;-71
2023/11/02 12:59:46;;;;;;;0.82;0.35;;;13.30;99.90;;;;;;5051444;28;20032;-73
2023/11/02 13:02:24;;;;;;;3.47;0.60;;;13.20;99.90;;;;;;5052571;28;20113;-73
2023/11/02 13:04:51;;;;;;;1.60;0.65;;;13.20;99.90;;;;;;5051495;28;20021;-72
2023/11/02 13:07:31;;;;;;;2.20;0.60;;;13.20;99.90;;;;;;5052893;28;20075;-73